Ashland, MS (38603)

2:48 AM CDT on August 01, 2014 (GMT -0500)
Northhaven (KMSNEWAL2) Elev 364 ft | 34.51 °N, 89.00 °W | Change Station

Current weather conditions updated 10 minutes ago

Mist
Mist
68.2 °F
Feels Like 68.2 °F
N
0.0
Wind Variable Wind from WSW

Today is forecast to be nearly the same temperature as yesterday.

Today
High -- | Low -- °F
--% Chance of Precip.
Yesterday
High -- | Low -- °F
Precip. -- in
6:06 AM 7:59 PM
Waxing Crescent, 24% visible
Pressure 30.04 in
Visibility 3.0 miles
Clouds
Dew Point 67 °F
Humidity 97%
Rainfall 0.00 in
Snow Depth Not available.
UV Not available.
Pollen 4.40 out of 12
Air Quality Not available.
Flu Activity Not available.
METAR KCRX 010735Z AUTO 00000KT 3SM BR 19/18 A3004 RMK AO2

More Conditions Fewer Conditions

Pressure 30.04 in
Visibility 3.0 miles
Clouds
Dew Point 67 °F
Humidity 97%
Rainfall 0.00 in
Snow Depth Not available.
UV Not available.
Pollen 4.40 out of 12
Air Quality Not available.
Flu Activity Not available.
METAR KCRX 010735Z AUTO 00000KT 3SM BR 19/18 A3004 RMK AO2

More Conditions Fewer Conditions

10-Day Weather Forecast

Almanac

Astronomy

Aug. 01, 2014 Rise Set
Actual Time 6:06 AM CDT 7:59 PM CDT
Civil Twilight 5:38 AM CDT 8:26 PM CDT
Nautical Twilight 5:05 AM CDT 9:00 PM CDT
Astronomical Twilight 4:29 AM CDT 9:35 PM CDT
Moon 11:15 AM CDT 10:59 PM CDT
Length of Visible Light 14h 47m
Length of Day
13h 52m
Tomorrow will be 1m 39s shorter.
Waxing Crescent, 24% of the Moon is Illuminated
Today
Waxing Crescent
Aug 3
First Quarter
Aug 10
Full
Aug 17
Last Quarter
Aug 25
New

Today's Extremes

State Highs State Lows

Community

WunderPhotos

Upload Photos

1,739,522 photos uploaded!

Nearby

Snow Depth

Station Depth Elevation
No new snow has been reported.

Earthquake Activity

City Distance Mag. Time & Date
No recent earthquake activity has been reported nearby.
Minimum magnitude displayed is 2.5.

Coastal Water Temperatures

Place Temperature
No Stations Reporting

Nearby Weather Stations

Station Location Temp. Dew Point Humidity Wind Precip. Elev Updated Type
Northhaven, New Albany, MS 68.2 °F 67 °F 97% WSW  at  0.0 mph - / hr 364 ft 2:38 AM CDT Normal

Show More Stations Show Fewer Stations